KLGF/LGF METAR and TAF weather

Enter ICAO airport designator
Station Type Date Time Source
KLGF METAR 2019/06/17 11:58 UTC NOAA

KLGF 171158Z AUTO 06003KT 10SM CLR 24/06 A2970 RMK AO2 SLPNO T02420060 10307 20230 52005 $


Station Type Date Time Source
KLGF Decoded METAR 2019/06/17 11:58 UTC NOAA

Station name not available
Jun 17, 2019 - 07:58 AM EDT / 2019.06.17 1158 UTC
Wind: from the ENE (060 degrees) at 3 MPH (3 KT):0
Visibility: 10 mile(s):0
Sky conditions: clear
Temperature: 75.6 F (24.2 C)
Dew Point: 42.8 F (6.0 C)
Relative Humidity: 30%
Pressure (altimeter): 29.7 in. Hg (1005 hPa)
Pressure tendency: 0.01 inches (0.5 hPa) higher than three hours ago
ob: KLGF 171158Z AUTO 06003KT 10SM CLR 24/06 A2970 RMK AO2 SLPNO T02420060 10307 20230 52005
cycle: 12

Station Type Date Time Source
KLGF TAF UTC NOAA

Error!

Example: see airport list